Kaioh(e/b) — JD2896 — position and weather

sailwx.info

Track history (hours):
 
Tides and Currents Weather Stations Pressure Air Temp Water Temp Dewpoint Dewpoint Depression Visibility Wind Speed Wind Dir Waves Ship Positions

Kaioh(e/b)

Last reported at 2018-Jan-22 08:00 UTC. Time now 2018-Jan-22 08:08 UTC.
Position N 34°59' E 136°49'.

Length 37 m.

Type: Other ship. MMSI: 431000915.

Date/timePositionNaut miles runAvg speedWind from/ knotsBaromVisibWave heightAir tempDewpointWater temp
2018-Jan-22 08:00N 34°59' E 136°49'0 0.0
2018-Jan-22 07:30N 34°59' E 136°49'0 0.6
2018-Jan-22 07:00N 34°59' E 136°49'0 0.7
2018-Jan-22 06:31N 34°59' E 136°49'0 0.2
2018-Jan-22 06:00N 34°59' E 136°49'0 0.1
2018-Jan-22 05:31N 34°59' E 136°49'0 0.0
2018-Jan-22 05:00N 34°59' E 136°49'0 0.1
2018-Jan-22 04:30N 34°59' E 136°49'0 0.2
2018-Jan-22 04:01N 34°59' E 136°49'0 0.1
2018-Jan-22 03:30N 34°59' E 136°49'0 0.6
2018-Jan-22 03:00N 34°59' E 136°49'0 0.6
2018-Jan-22 02:30N 34°59' E 136°49'0 0.2
2018-Jan-22 02:00N 34°59' E 136°49'0 0.6
2018-Jan-22 01:30N 34°59' E 136°49'3 5.8
2018-Jan-22 01:00N 34°57' E 136°47'2 4.5
2018-Jan-22 00:30N 34°54' E 136°47'3 6.4
2018-Jan-22 00:00N 34°51' E 136°46'6 8.5
2018-Jan-21 23:14N 34°45' E 136°48'312.6
2018-Jan-21 23:00N 34°47' E 136°46'713.4
2018-Jan-21 22:30N 34°54' E 136°44'612.7
2018-Jan-21 22:00N 34°59' E 136°41'2 1.8
2018-Jan-21 21:09N 35°00' E 136°40'0 0.0
2018-Jan-21 20:57N 35°00' E 136°40'0 0.0
2018-Jan-21 20:27N 35°00' E 136°40'0 0.0
2018-Jan-21 19:57N 35°00' E 136°40'0 0.0
2018-Jan-21 19:27N 35°00' E 136°40'0 0.0
2018-Jan-21 18:57N 35°00' E 136°40'0 0.0
2018-Jan-21 18:27N 35°00' E 136°40'0 0.0
2018-Jan-21 17:57N 35°00' E 136°40'0 0.0
2018-Jan-21 17:15N 35°00' E 136°40'0 0.0
2018-Jan-21 16:57N 35°00' E 136°40'0 0.0
2018-Jan-21 16:27N 35°00' E 136°40'0 0.0
2018-Jan-21 15:57N 35°00' E 136°40'0 0.0
2018-Jan-21 15:21N 35°00' E 136°40'0 0.0
2018-Jan-21 14:57N 35°00' E 136°40'0 0.0
2018-Jan-21 06:09N 35°00' E 136°40'0 0.0
2018-Jan-21 05:09N 35°00' E 136°40'0 0.0
2018-Jan-21 04:45N 35°00' E 136°40'0 0.0
2018-Jan-21 04:21N 35°00' E 136°40'0 0.0
2018-Jan-21 03:57N 35°00' E 136°40'1 3.1
2018-Jan-21 03:30N 34°60' E 136°41'4 8.1
2018-Jan-21 03:00N 34°56' E 136°42'0 0.1
2018-Jan-21 02:30N 34°56' E 136°42'0 0.1
2018-Jan-21 02:00N 34°56' E 136°42'0 0.3
2018-Jan-21 01:30N 34°56' E 136°42'0 0.2
2018-Jan-21 01:00N 34°56' E 136°42'0 0.1
2018-Jan-21 00:31N 34°56' E 136°42'0 0.2
2018-Jan-21 00:01N 34°56' E 136°42'0 0.1
2018-Jan-20 23:30N 34°56' E 136°42'0 0.1
2018-Jan-20 23:00N 34°56' E 136°42'0 0.1
2018-Jan-20 22:30N 34°56' E 136°42'0 0.4
2018-Jan-20 22:00N 34°56' E 136°42'0 0.4
2018-Jan-20 21:30N 34°56' E 136°42'0 0.3
2018-Jan-20 21:00N 34°56' E 136°42'0 0.0
2018-Jan-20 20:30N 34°56' E 136°42'0 0.3
2018-Jan-20 20:00N 34°56' E 136°42'0 0.3
2018-Jan-20 19:31N 34°56' E 136°42'0 0.2
2018-Jan-20 19:00N 34°56' E 136°42'0 0.4
2018-Jan-20 18:30N 34°56' E 136°42'0 0.3
2018-Jan-20 18:00N 34°56' E 136°42'0 0.5
2018-Jan-20 17:30N 34°56' E 136°42'0 0.3
2018-Jan-20 17:01N 34°56' E 136°42'0 0.3
2018-Jan-20 16:30N 34°56' E 136°42'0 0.2
2018-Jan-20 16:00N 34°56' E 136°42'0 0.1
2018-Jan-20 15:30N 34°56' E 136°42'0 0.0
2018-Jan-20 15:00N 34°56' E 136°42'0 0.1
2018-Jan-20 14:30N 34°56' E 136°42'0 0.1
2018-Jan-20 14:00N 34°56' E 136°42'0 0.0
2018-Jan-20 13:31N 34°56' E 136°42'0 0.2
2018-Jan-20 13:00N 34°56' E 136°42'0 0.0
2018-Jan-20 12:30N 34°56' E 136°42'0 0.3
2018-Jan-20 12:01N 34°56' E 136°42'0 0.1
2018-Jan-20 11:30N 34°56' E 136°42'0 0.2
2018-Jan-20 11:00N 34°56' E 136°42'0 0.5
2018-Jan-20 10:30N 34°56' E 136°42'0 0.4
2018-Jan-20 10:01N 34°56' E 136°42'0 0.3
2018-Jan-20 09:30N 34°56' E 136°42'0 0.1
2018-Jan-20 09:00N 34°56' E 136°42'0 0.3
2018-Jan-20 08:30N 34°56' E 136°42'0 0.3
2018-Jan-20 08:00N 34°56' E 136°43'0 0.1
2018-Jan-20 07:30N 34°56' E 136°42'0 0.3
2018-Jan-20 07:00N 34°56' E 136°43'1 1.7
2018-Jan-20 06:30N 34°55' E 136°43'1 2.1
2018-Jan-20 06:00N 34°55' E 136°42'0 1.0
2018-Jan-20 05:30N 34°55' E 136°41'0 0.8
2018-Jan-20 05:00N 34°55' E 136°41'1 1.8
2018-Jan-20 04:30N 34°56' E 136°41'3 5.2
2018-Jan-20 04:00N 34°59' E 136°42'2 4.1
2018-Jan-20 03:30N 34°60' E 136°40'0 0.4
2018-Jan-20 03:00N 34°60' E 136°39'0 0.8
2018-Jan-20 02:30N 35°00' E 136°40'0 0.0
2018-Jan-20 01:39N 35°00' E 136°40'0 0.0
2018-Jan-20 01:15N 35°00' E 136°40'0 0.0
2018-Jan-20 00:48N 35°00' E 136°40'0 0.0
2018-Jan-20 00:21N 35°00' E 136°40'0 0.0
2018-Jan-19 20:15N 35°00' E 136°40'0 0.0
2018-Jan-19 19:57N 35°00' E 136°40'0 0.0
2018-Jan-19 18:21N 35°00' E 136°40'0 0.0
2018-Jan-19 17:57N 35°00' E 136°40'0 0.0
2018-Jan-19 17:21N 35°00' E 136°40'0 0.0
2018-Jan-19 16:57N 35°00' E 136°40'0 0.0
2018-Jan-19 16:27N 35°00' E 136°40'0 0.0
2018-Jan-19 15:57N 35°00' E 136°40'0 0.0
2018-Jan-19 15:27N 35°00' E 136°40'0 0.0
2018-Jan-19 15:00N 35°00' E 136°40'0 0.0
2018-Jan-19 14:27N 35°00' E 136°40'0 0.0
2018-Jan-19 13:03N 35°00' E 136°40'0 0.0
2018-Jan-19 13:00N 35°00' E 136°40'0 0.0
2018-Jan-19 12:30N 35°00' E 136°40'0 0.0
2018-Jan-19 11:57N 35°00' E 136°40'0 0.0
2018-Jan-19 11:21N 35°00' E 136°40'0 0.0
2018-Jan-19 10:45N 35°00' E 136°40'0 0.0
2018-Jan-19 10:21N 35°00' E 136°40'0 0.0
2018-Jan-19 09:39N 35°00' E 136°40'0 0.0
2018-Jan-19 09:24N 35°00' E 136°40'0 0.0
2018-Jan-19 08:48N 35°00' E 136°40'0 0.0
2018-Jan-19 07:12N 35°00' E 136°40'0 0.0
2018-Jan-19 07:00N 35°00' E 136°40'0 0.0
2018-Jan-19 06:30N 35°00' E 136°40'0 0.0
2018-Jan-19 06:00N 35°00' E 136°40'0 0.0
2018-Jan-19 05:30N 35°00' E 136°40'0 0.0
2018-Jan-19 05:00N 35°00' E 136°40'0 0.0
2018-Jan-19 04:24N 35°00' E 136°40'0 0.0
2018-Jan-19 03:54N 35°00' E 136°40'0 0.0
2018-Jan-19 03:18N 35°00' E 136°40'0 0.0
2018-Jan-19 02:42N 35°00' E 136°40'0 0.0
2018-Jan-18 19:42N 35°00' E 136°40'0 0.0
2018-Jan-18 19:12N 35°00' E 136°40'0 0.0
2018-Jan-18 19:00N 35°00' E 136°40'0 0.0
2018-Jan-18 18:18N 35°00' E 136°40'0 0.0
2018-Jan-18 18:00N 35°00' E 136°40'0 0.0
2018-Jan-18 17:24N 35°00' E 136°40'0 0.0
2018-Jan-18 15:18N 35°00' E 136°40'0 0.0
2018-Jan-18 14:48N 35°00' E 136°40'0 0.0
2018-Jan-18 14:30N 35°00' E 136°40'0 0.0
2018-Jan-18 12:54N 35°00' E 136°40'0 0.0
2018-Jan-18 12:24N 35°00' E 136°40'0 0.0
2018-Jan-18 11:54N 35°00' E 136°40'0 0.0
2018-Jan-18 11:30N 35°00' E 136°40'0 0.0
2018-Jan-18 11:00N 35°00' E 136°40'0 0.0
2018-Jan-18 10:06N 35°00' E 136°40'0 0.0
2018-Jan-18 09:42N 35°00' E 136°40'0 0.0
2018-Jan-18 09:24N 35°00' E 136°40'0 0.0
2018-Jan-18 09:00N 35°00' E 136°40'0 0.0
2018-Jan-18 07:36N 35°00' E 136°40'0 0.0
2018-Jan-18 07:24N 35°00' E 136°40'0 0.0
2018-Jan-18 07:00N 35°00' E 136°40'0 0.0
2018-Jan-18 06:30N 35°00' E 136°40'0 0.0
2018-Jan-18 06:00N 35°00' E 136°40'0 0.0
2018-Jan-18 05:30N 35°00' E 136°40'0 0.0
2018-Jan-18 05:00N 35°00' E 136°40'0 0.0
2018-Jan-18 04:24N 35°00' E 136°40'0 0.0
2018-Jan-18 04:00N 35°00' E 136°40'0 0.0
2018-Jan-18 03:30N 35°00' E 136°40'0 0.0
2018-Jan-18 01:06N 35°00' E 136°40'0 0.0
2018-Jan-18 01:00N 35°00' E 136°40'  
2018-Jan-12 14:59N 35°00' E 136°40'0 0.0
2018-Jan-12 14:29N 35°00' E 136°40'0 0.0
2018-Jan-12 13:59N 35°00' E 136°40'0 0.0
2018-Jan-12 13:29N 35°00' E 136°40'0 0.0
2018-Jan-12 12:59N 35°00' E 136°40'0 0.0
2018-Jan-12 12:29N 35°00' E 136°40'0 0.0
2018-Jan-12 11:59N 35°00' E 136°40'0 0.0
2018-Jan-12 11:29N 35°00' E 136°40'0 0.0
2018-Jan-12 10:59N 35°00' E 136°40'0 0.0
2018-Jan-12 10:29N 35°00' E 136°40'0 0.0
2018-Jan-12 09:59N 35°00' E 136°40'0 0.0
2018-Jan-12 09:29N 35°00' E 136°40'0 0.0
2018-Jan-12 08:47N 35°00' E 136°40'0 0.0
2018-Jan-12 08:23N 35°00' E 136°40'  
Track history (hours):
 
Tides and Currents Weather Stations Pressure Air Temp Water Temp Dewpoint Dewpoint Depression Visibility Wind Speed Wind Dir Waves Ship Positions

Kaioh(e/b)

Last reported at 2018-Jan-22 08:00 UTC. Time now 2018-Jan-22 08:08 UTC.
Position N 34°59' E 136°49'.

Length 37 m.

Type: Other ship. MMSI: 431000915.

Date/timePositionNaut miles runAvg speedWind from/ knotsBaromVisibWave heightAir tempDewpointWater temp
2018-Jan-22 08:00N 34°59' E 136°49'0 0.0
2018-Jan-22 07:30N 34°59' E 136°49'0 0.6
2018-Jan-22 07:00N 34°59' E 136°49'0 0.7
2018-Jan-22 06:31N 34°59' E 136°49'0 0.2
2018-Jan-22 06:00N 34°59' E 136°49'0 0.1
2018-Jan-22 05:31N 34°59' E 136°49'0 0.0
2018-Jan-22 05:00N 34°59' E 136°49'0 0.1
2018-Jan-22 04:30N 34°59' E 136°49'0 0.2
2018-Jan-22 04:01N 34°59' E 136°49'0 0.1
2018-Jan-22 03:30N 34°59' E 136°49'0 0.6
2018-Jan-22 03:00N 34°59' E 136°49'0 0.6
2018-Jan-22 02:30N 34°59' E 136°49'0 0.2
2018-Jan-22 02:00N 34°59' E 136°49'0 0.6
2018-Jan-22 01:30N 34°59' E 136°49'3 5.8
2018-Jan-22 01:00N 34°57' E 136°47'2 4.5
2018-Jan-22 00:30N 34°54' E 136°47'3 6.4
2018-Jan-22 00:00N 34°51' E 136°46'6 8.5
2018-Jan-21 23:14N 34°45' E 136°48'312.6
2018-Jan-21 23:00N 34°47' E 136°46'713.4
2018-Jan-21 22:30N 34°54' E 136°44'612.7
2018-Jan-21 22:00N 34°59' E 136°41'2 1.8
2018-Jan-21 21:09N 35°00' E 136°40'0 0.0
2018-Jan-21 20:57N 35°00' E 136°40'0 0.0
2018-Jan-21 20:27N 35°00' E 136°40'0 0.0
2018-Jan-21 19:57N 35°00' E 136°40'0 0.0
2018-Jan-21 19:27N 35°00' E 136°40'0 0.0
2018-Jan-21 18:57N 35°00' E 136°40'0 0.0
2018-Jan-21 18:27N 35°00' E 136°40'0 0.0
2018-Jan-21 17:57N 35°00' E 136°40'0 0.0
2018-Jan-21 17:15N 35°00' E 136°40'0 0.0
2018-Jan-21 16:57N 35°00' E 136°40'0 0.0
2018-Jan-21 16:27N 35°00' E 136°40'0 0.0
2018-Jan-21 15:57N 35°00' E 136°40'0 0.0
2018-Jan-21 15:21N 35°00' E 136°40'0 0.0
2018-Jan-21 14:57N 35°00' E 136°40'0 0.0
2018-Jan-21 06:09N 35°00' E 136°40'0 0.0
2018-Jan-21 05:09N 35°00' E 136°40'0 0.0
2018-Jan-21 04:45N 35°00' E 136°40'0 0.0
2018-Jan-21 04:21N 35°00' E 136°40'0 0.0
2018-Jan-21 03:57N 35°00' E 136°40'1 3.1
2018-Jan-21 03:30N 34°60' E 136°41'4 8.1
2018-Jan-21 03:00N 34°56' E 136°42'0 0.1
2018-Jan-21 02:30N 34°56' E 136°42'0 0.1
2018-Jan-21 02:00N 34°56' E 136°42'0 0.3
2018-Jan-21 01:30N 34°56' E 136°42'0 0.2
2018-Jan-21 01:00N 34°56' E 136°42'0 0.1
2018-Jan-21 00:31N 34°56' E 136°42'0 0.2
2018-Jan-21 00:01N 34°56' E 136°42'0 0.1
2018-Jan-20 23:30N 34°56' E 136°42'0 0.1
2018-Jan-20 23:00N 34°56' E 136°42'0 0.1
2018-Jan-20 22:30N 34°56' E 136°42'0 0.4
2018-Jan-20 22:00N 34°56' E 136°42'0 0.4
2018-Jan-20 21:30N 34°56' E 136°42'0 0.3
2018-Jan-20 21:00N 34°56' E 136°42'0 0.0
2018-Jan-20 20:30N 34°56' E 136°42'0 0.3
2018-Jan-20 20:00N 34°56' E 136°42'0 0.3
2018-Jan-20 19:31N 34°56' E 136°42'0 0.2
2018-Jan-20 19:00N 34°56' E 136°42'0 0.4
2018-Jan-20 18:30N 34°56' E 136°42'0 0.3
2018-Jan-20 18:00N 34°56' E 136°42'0 0.5
2018-Jan-20 17:30N 34°56' E 136°42'0 0.3
2018-Jan-20 17:01N 34°56' E 136°42'0 0.3
2018-Jan-20 16:30N 34°56' E 136°42'0 0.2
2018-Jan-20 16:00N 34°56' E 136°42'0 0.1
2018-Jan-20 15:30N 34°56' E 136°42'0 0.0
2018-Jan-20 15:00N 34°56' E 136°42'0 0.1
2018-Jan-20 14:30N 34°56' E 136°42'0 0.1
2018-Jan-20 14:00N 34°56' E 136°42'0 0.0
2018-Jan-20 13:31N 34°56' E 136°42'0 0.2
2018-Jan-20 13:00N 34°56' E 136°42'0 0.0
2018-Jan-20 12:30N 34°56' E 136°42'0 0.3
2018-Jan-20 12:01N 34°56' E 136°42'0 0.1
2018-Jan-20 11:30N 34°56' E 136°42'0 0.2
2018-Jan-20 11:00N 34°56' E 136°42'0 0.5
2018-Jan-20 10:30N 34°56' E 136°42'0 0.4
2018-Jan-20 10:01N 34°56' E 136°42'0 0.3
2018-Jan-20 09:30N 34°56' E 136°42'0 0.1
2018-Jan-20 09:00N 34°56' E 136°42'0 0.3
2018-Jan-20 08:30N 34°56' E 136°42'0 0.3
2018-Jan-20 08:00N 34°56' E 136°43'0 0.1
2018-Jan-20 07:30N 34°56' E 136°42'0 0.3
2018-Jan-20 07:00N 34°56' E 136°43'1 1.7
2018-Jan-20 06:30N 34°55' E 136°43'1 2.1
2018-Jan-20 06:00N 34°55' E 136°42'0 1.0
2018-Jan-20 05:30N 34°55' E 136°41'0 0.8
2018-Jan-20 05:00N 34°55' E 136°41'1 1.8
2018-Jan-20 04:30N 34°56' E 136°41'3 5.2
2018-Jan-20 04:00N 34°59' E 136°42'2 4.1
2018-Jan-20 03:30N 34°60' E 136°40'0 0.4
2018-Jan-20 03:00N 34°60' E 136°39'0 0.8
2018-Jan-20 02:30N 35°00' E 136°40'0 0.0
2018-Jan-20 01:39N 35°00' E 136°40'0 0.0
2018-Jan-20 01:15N 35°00' E 136°40'0 0.0
2018-Jan-20 00:48N 35°00' E 136°40'0 0.0
2018-Jan-20 00:21N 35°00' E 136°40'0 0.0
2018-Jan-19 20:15N 35°00' E 136°40'0 0.0
2018-Jan-19 19:57N 35°00' E 136°40'0 0.0
2018-Jan-19 18:21N 35°00' E 136°40'0 0.0
2018-Jan-19 17:57N 35°00' E 136°40'0 0.0
2018-Jan-19 17:21N 35°00' E 136°40'0 0.0
2018-Jan-19 16:57N 35°00' E 136°40'0 0.0
2018-Jan-19 16:27N 35°00' E 136°40'0 0.0
2018-Jan-19 15:57N 35°00' E 136°40'0 0.0
2018-Jan-19 15:27N 35°00' E 136°40'0 0.0
2018-Jan-19 15:00N 35°00' E 136°40'0 0.0
2018-Jan-19 14:27N 35°00' E 136°40'0 0.0
2018-Jan-19 13:03N 35°00' E 136°40'0 0.0
2018-Jan-19 13:00N 35°00' E 136°40'0 0.0
2018-Jan-19 12:30N 35°00' E 136°40'0 0.0
2018-Jan-19 11:57N 35°00' E 136°40'0 0.0
2018-Jan-19 11:21N 35°00' E 136°40'0 0.0
2018-Jan-19 10:45N 35°00' E 136°40'0 0.0
2018-Jan-19 10:21N 35°00' E 136°40'0 0.0
2018-Jan-19 09:39N 35°00' E 136°40'0 0.0
2018-Jan-19 09:24N 35°00' E 136°40'0 0.0
2018-Jan-19 08:48N 35°00' E 136°40'0 0.0
2018-Jan-19 07:12N 35°00' E 136°40'0 0.0
2018-Jan-19 07:00N 35°00' E 136°40'0 0.0
2018-Jan-19 06:30N 35°00' E 136°40'0 0.0
2018-Jan-19 06:00N 35°00' E 136°40'0 0.0
2018-Jan-19 05:30N 35°00' E 136°40'0 0.0
2018-Jan-19 05:00N 35°00' E 136°40'0 0.0
2018-Jan-19 04:24N 35°00' E 136°40'0 0.0
2018-Jan-19 03:54N 35°00' E 136°40'0 0.0
2018-Jan-19 03:18N 35°00' E 136°40'0 0.0
2018-Jan-19 02:42N 35°00' E 136°40'0 0.0
2018-Jan-18 19:42N 35°00' E 136°40'0 0.0
2018-Jan-18 19:12N 35°00' E 136°40'0 0.0
2018-Jan-18 19:00N 35°00' E 136°40'0 0.0
2018-Jan-18 18:18N 35°00' E 136°40'0 0.0
2018-Jan-18 18:00N 35°00' E 136°40'0 0.0
2018-Jan-18 17:24N 35°00' E 136°40'0 0.0
2018-Jan-18 15:18N 35°00' E 136°40'0 0.0
2018-Jan-18 14:48N 35°00' E 136°40'0 0.0
2018-Jan-18 14:30N 35°00' E 136°40'0 0.0
2018-Jan-18 12:54N 35°00' E 136°40'0 0.0
2018-Jan-18 12:24N 35°00' E 136°40'0 0.0
2018-Jan-18 11:54N 35°00' E 136°40'0 0.0
2018-Jan-18 11:30N 35°00' E 136°40'0 0.0
2018-Jan-18 11:00N 35°00' E 136°40'0 0.0
2018-Jan-18 10:06N 35°00' E 136°40'0 0.0
2018-Jan-18 09:42N 35°00' E 136°40'0 0.0
2018-Jan-18 09:24N 35°00' E 136°40'0 0.0
2018-Jan-18 09:00N 35°00' E 136°40'0 0.0
2018-Jan-18 07:36N 35°00' E 136°40'0 0.0
2018-Jan-18 07:24N 35°00' E 136°40'0 0.0
2018-Jan-18 07:00N 35°00' E 136°40'0 0.0
2018-Jan-18 06:30N 35°00' E 136°40'0 0.0
2018-Jan-18 06:00N 35°00' E 136°40'0 0.0
2018-Jan-18 05:30N 35°00' E 136°40'0 0.0
2018-Jan-18 05:00N 35°00' E 136°40'0 0.0
2018-Jan-18 04:24N 35°00' E 136°40'0 0.0
2018-Jan-18 04:00N 35°00' E 136°40'0 0.0
2018-Jan-18 03:30N 35°00' E 136°40'0 0.0
2018-Jan-18 01:06N 35°00' E 136°40'0 0.0
2018-Jan-18 01:00N 35°00' E 136°40'  
2018-Jan-12 14:59N 35°00' E 136°40'0 0.0
2018-Jan-12 14:29N 35°00' E 136°40'0 0.0
2018-Jan-12 13:59N 35°00' E 136°40'0 0.0
2018-Jan-12 13:29N 35°00' E 136°40'0 0.0
2018-Jan-12 12:59N 35°00' E 136°40'0 0.0
2018-Jan-12 12:29N 35°00' E 136°40'0 0.0
2018-Jan-12 11:59N 35°00' E 136°40'0 0.0
2018-Jan-12 11:29N 35°00' E 136°40'0 0.0
2018-Jan-12 10:59N 35°00' E 136°40'0 0.0
2018-Jan-12 10:29N 35°00' E 136°40'0 0.0
2018-Jan-12 09:59N 35°00' E 136°40'0 0.0
2018-Jan-12 09:29N 35°00' E 136°40'0 0.0
2018-Jan-12 08:47N 35°00' E 136°40'0 0.0
2018-Jan-12 08:23N 35°00' E 136°40'  

Dump ship's entire track history